Time;durP1;ratioP1;P1;durP2;ratioP2;P2;SDS_P1;SDS_P2;PMS_P1;PMS_P2;Temp;Humidity;BMP_temperature;BMP_pressure;BME280_temperature;BME280_humidity;BME280_pressure;Samples;Min_cycle;Max_cycle;Signal;HPM_P1;HPM_P2
2022/01/13 00:01:44;;;;;;;69.13;37.10;;;-3275.50;79.00;;;-3.70;87.06;98137.47;4938098;29;20035;-67
2022/01/13 00:04:11;;;;;;;73.88;39.15;;;-3275.50;78.90;;;-3.70;87.28;98129.78;4928285;29;20443;-67
2022/01/13 00:06:37;;;;;;;74.93;39.53;;;-3275.50;78.80;;;-3.71;87.24;98122.94;4899017;29;20431;-67
2022/01/13 00:09:04;;;;;;;75.25;38.15;;;-3275.50;78.90;;;-3.70;87.72;98131.50;4914849;28;20038;-66
2022/01/13 00:11:29;;;;;;;71.60;37.72;;;-3275.50;78.90;;;-3.68;87.34;98131.44;4926343;29;20091;-67
2022/01/13 00:17:23;;;;;;;70.10;38.65;;;-3275.50;79.00;;;-3.65;87.43;98142.47;4925916;28;20043;-67
2022/01/13 00:20:08;;;;;;;77.25;38.60;;;-3275.50;78.90;;;-3.65;87.49;98150.19;4929002;29;20059;-67
2022/01/13 00:25:01;;;;;;;71.15;38.70;;;-3275.60;78.80;;;-3.62;87.84;98146.66;4913050;29;20106;-66
2022/01/13 00:27:29;;;;;;;78.38;40.60;;;-3275.60;78.90;;;-3.60;88.12;98145.75;4941077;29;20070;-67
2022/01/13 00:29:57;;;;;;;78.30;40.20;;;-3275.60;79.00;;;-3.58;87.76;98150.84;4922487;29;20032;-67
2022/01/13 00:32:26;;;;;;;74.43;39.42;;;-3275.70;79.10;;;-3.56;87.69;98156.78;4927916;29;20040;-67
2022/01/13 00:34:52;;;;;;;76.15;39.63;;;-3275.70;79.00;;;-3.53;87.99;98154.94;4923056;29;20127;-66
2022/01/13 00:37:17;;;;;;;73.95;40.22;;;-3275.80;79.00;;;-3.51;88.08;98154.88;4927969;29;20067;-67
2022/01/13 00:39:43;;;;;;;76.68;40.10;;;-3275.80;79.20;;;-3.49;88.17;98163.38;4913175;29;20055;-67
2022/01/13 00:42:09;;;;;;;78.78;40.28;;;-3275.80;79.10;;;-3.46;88.69;98158.13;4910835;29;20070;-67
2022/01/13 00:44:37;;;;;;;76.60;39.58;;;-3275.90;79.20;;;-3.44;88.75;98158.91;4910464;29;20075;-67
2022/01/13 00:47:05;;;;;;;75.88;39.67;;;-3275.80;79.10;;;-3.43;88.48;98158.00;4929877;29;20034;-67
2022/01/13 00:49:31;;;;;;;75.20;39.97;;;-3275.90;79.10;;;-3.42;88.43;98154.53;4929883;29;20097;-67
2022/01/13 00:51:57;;;;;;;75.43;40.28;;;-3275.80;79.40;;;-3.39;88.49;98157.03;4951963;29;20063;-66
2022/01/13 00:54:23;;;;;;;76.35;40.60;;;-3275.90;79.30;;;-3.40;88.97;98163.06;4939979;29;20616;-67
2022/01/13 00:56:49;;;;;;;78.88;40.38;;;-3275.90;79.40;;;-3.40;88.54;98152.75;4938704;29;20039;-67
2022/01/13 00:59:15;;;;;;;77.40;41.75;;;-3275.80;79.60;;;-3.36;88.91;98163.81;4944222;28;20043;-67
2022/01/13 01:01:50;;;;;;;77.65;41.60;;;-3275.90;79.70;;;-3.32;89.23;98158.50;4911976;29;20036;-67
2022/01/13 01:04:17;;;;;;;72.25;39.58;;;-3276.00;79.50;;;-3.28;88.82;98154.94;4914453;29;20048;-67
2022/01/13 01:06:43;;;;;;;81.57;41.45;;;-3276.00;79.40;;;-3.25;88.85;98154.81;4910396;29;20044;-67
2022/01/13 01:09:22;;;;;;;77.60;39.53;;;-3276.00;79.40;;;-3.25;88.65;98146.25;4925741;29;20170;-67
2022/01/13 01:11:50;;;;;;;75.97;40.70;;;-3276.00;79.30;;;-3.23;89.01;98141.88;4942707;29;20057;-67
2022/01/13 01:14:16;;;;;;;81.18;40.08;;;-3276.00;79.30;;;-3.22;88.65;98146.97;4925235;29;20176;-67
2022/01/13 01:16:42;;;;;;;76.97;40.70;;;-3276.00;79.40;;;-3.19;88.95;98156.31;4907716;29;20408;-67
2022/01/13 01:19:10;;;;;;;75.85;40.70;;;-3276.00;79.50;;;-3.18;88.66;98153.69;4893386;29;20039;-67
2022/01/13 01:26:54;;;;;;;72.22;37.20;;;-3276.10;79.10;;;-3.14;88.63;98164.75;4920409;29;20417;-67
2022/01/13 01:29:25;;;;;;;70.25;37.38;;;-3276.10;79.00;;;-3.13;88.86;98167.28;4904239;28;20142;-67
2022/01/13 01:31:53;;;;;;;;;;;-3276.10;79.10;;;-3.14;89.37;98167.31;4922873;29;20389;-67
2022/01/13 01:37:15;;;;;;;70.07;37.92;;;-3275.90;79.50;;;-3.20;88.83;98170.94;4928047;29;20114;-66
2022/01/13 01:39:45;;;;;;;71.93;37.47;;;-3276.00;79.40;;;-3.15;89.09;98174.22;4941218;29;20115;-66
2022/01/13 01:42:11;;;;;;;74.55;37.92;;;-3276.00;79.50;;;-3.14;88.85;98163.00;4899745;29;20047;-66
2022/01/13 01:44:41;;;;;;;77.13;39.17;;;-3276.10;79.30;;;-3.12;88.60;98171.53;4934878;29;20036;-66
2022/01/13 01:47:10;;;;;;;76.00;39.78;;;-3276.10;79.30;;;-3.10;89.14;98171.47;4941852;29;20040;-66
2022/01/13 01:49:40;;;;;;;75.72;38.33;;;-3276.10;79.30;;;-3.08;89.02;98167.94;4943531;28;20106;-65
2022/01/13 01:52:07;;;;;;;75.28;39.28;;;-3276.20;79.30;;;-3.08;89.04;98160.22;4925903;29;20046;-66
2022/01/13 01:54:33;;;;;;;80.38;41.15;;;-3276.10;79.50;;;-3.06;89.13;98161.91;4941735;29;20048;-66
2022/01/13 01:56:59;;;;;;;74.43;39.50;;;-3276.10;79.50;;;-3.04;88.90;98170.41;4909911;29;20527;-66
2022/01/13 01:59:28;;;;;;;78.90;38.33;;;-3276.20;79.50;;;-3.03;89.13;98161.78;4941806;28;20046;-66
2022/01/13 02:01:54;;;;;;;73.25;38.45;;;-3276.10;79.20;;;-3.01;88.85;98170.28;4913819;29;20043;-66
2022/01/13 02:04:21;;;;;;;73.03;39.08;;;-3276.20;79.50;;;-3.00;89.15;98174.53;4927350;29;20046;-66
2022/01/13 02:06:46;;;;;;;75.03;37.90;;;-3276.30;79.40;;;-2.99;89.19;98169.34;4912075;29;20120;-67
2022/01/13 02:09:15;;;;;;;79.82;39.85;;;-3276.30;79.30;;;-2.97;89.07;98177.00;4908850;29;21068;-66
2022/01/13 02:11:47;;;;;;;76.32;41.13;;;-3276.30;79.20;;;-2.94;89.35;98169.16;4926879;29;20051;-66
2022/01/13 02:14:47;;;;;;;77.57;39.33;;;-3276.30;79.50;;;-2.94;89.53;98161.44;4941199;23;20066;-64
2022/01/13 02:17:13;;;;;;;73.15;38.35;;;-3276.30;79.40;;;-2.91;89.14;98171.66;4924218;28;20542;-63
2022/01/13 02:19:44;;;;;;;74.82;39.22;;;-3276.40;79.10;;;-2.90;89.31;98170.75;4921944;29;20038;-64
2022/01/13 02:22:09;;;;;;;77.25;39.47;;;-3276.40;79.30;;;-2.89;89.44;98159.56;4929248;28;20459;-64
2022/01/13 02:24:35;;;;;;;78.32;40.13;;;-3276.40;79.10;;;-2.88;89.19;98161.25;4907952;29;20033;-64
2022/01/13 02:27:03;;;;;;;76.90;38.85;;;-3276.40;78.90;;;-2.86;89.26;98159.44;4901147;29;20091;-63
2022/01/13 02:29:28;;;;;;;77.00;40.13;;;-3276.40;78.80;;;-2.86;89.06;98157.72;4941078;29;20143;-64
2022/01/13 02:31:54;;;;;;;74.43;39.17;;;-3276.40;78.80;;;-2.86;88.97;98162.03;4923876;29;20150;-64
2022/01/13 02:34:20;;;;;;;79.00;39.78;;;-3276.40;79.00;;;-2.84;88.78;98152.50;4918802;29;20491;-64
2022/01/13 02:36:48;;;;;;;79.47;41.00;;;-3276.40;78.90;;;-2.83;89.00;98154.19;4935939;28;20043;-64
2022/01/13 02:39:14;;;;;;;80.38;40.60;;;-3276.50;79.10;;;-2.82;89.51;98161.00;4912776;29;20051;-64
2022/01/13 02:41:39;;;;;;;78.15;39.53;;;-3276.50;79.00;;;-2.83;89.55;98160.16;4931535;29;20075;-64
2022/01/13 02:44:14;;;;;;;78.90;41.20;;;-3276.50;78.90;;;-2.82;89.42;98156.69;4928079;29;20571;-64
2022/01/13 02:49:08;;;;;;;76.05;39.25;;;-3276.50;78.80;;;-2.79;89.18;98154.00;4928799;29;20031;-64
2022/01/13 02:51:33;;;;;;;78.10;39.70;;;-3276.50;78.80;;;-2.78;89.31;98157.41;4931914;29;20035;-65
2022/01/13 02:53:59;;;;;;;82.80;40.45;;;-3276.50;78.70;;;-2.76;88.66;98158.19;4929378;29;20138;-65
2022/01/13 02:56:25;;;;;;;75.60;39.10;;;-3276.50;78.60;;;-2.74;89.30;98153.00;4909723;29;20606;-65
2022/01/13 02:58:51;;;;;;;74.97;39.58;;;-3276.50;78.70;;;-2.72;89.10;98159.75;4912069;29;20051;-65
2022/01/13 03:01:17;;;;;;;74.40;39.05;;;-3276.50;78.60;;;-2.75;88.99;98159.88;4926369;29;20044;-65
2022/01/13 03:03:44;;;;;;;83.28;41.83;;;-3276.50;78.70;;;-2.75;89.00;98161.63;4907103;29;20047;-65
2022/01/13 03:06:15;;;;;;;75.70;39.97;;;-3276.50;78.70;;;-2.75;88.96;98157.31;4910437;29;20091;-66
2022/01/13 03:08:46;;;;;;;78.13;39.85;;;-3276.50;78.80;;;-2.76;89.06;98155.63;4921037;29;20556;-65
2022/01/13 03:11:13;;;;;;;78.70;40.63;;;-3276.50;78.70;;;-2.74;89.25;98164.13;4937784;28;20064;-66
2022/01/13 03:13:39;;;;;;;70.40;37.53;;;-3276.50;78.70;;;-2.74;88.73;98166.72;4943732;29;20047;-65
2022/01/13 03:16:10;;;;;;;75.97;38.92;;;-3276.50;78.70;;;-2.79;88.76;98166.88;4944309;29;20035;-65
2022/01/13 03:18:36;;;;;;;77.55;39.67;;;-3276.40;78.80;;;-2.79;89.21;98158.31;4917172;29;20036;-65
2022/01/13 03:21:02;;;;;;;81.32;39.15;;;-3276.40;78.90;;;-2.78;88.71;98162.56;4916274;29;20058;-65
2022/01/13 03:23:28;;;;;;;81.40;41.08;;;-3276.40;78.90;;;-2.82;89.05;98158.44;4913238;29;20051;-66
2022/01/13 03:25:54;;;;;;;80.72;41.17;;;-3276.40;78.90;;;-2.82;88.85;98161.84;4930036;29;20072;-65
2022/01/13 03:28:29;;;;;;;76.25;38.70;;;-3276.40;78.90;;;-2.80;88.82;98159.22;4949921;29;20518;-65
2022/01/13 03:30:55;;;;;;;79.90;40.00;;;-3276.40;78.90;;;-2.80;88.85;98154.06;4946874;28;20115;-65
2022/01/13 03:33:21;;;;;;;78.85;40.72;;;-3276.40;79.00;;;-2.82;89.01;98166.16;4918608;29;20180;-65
2022/01/13 03:35:47;;;;;;;83.72;40.70;;;-3276.30;79.10;;;-2.86;89.06;98154.28;4926008;29;20527;-65
2022/01/13 03:38:13;;;;;;;90.55;45.28;;;-3276.20;79.50;;;-2.88;88.86;98141.47;4933854;29;20111;-65
2022/01/13 03:40:39;;;;;;;80.10;40.70;;;-3276.30;79.60;;;-2.89;89.19;98137.22;4950382;28;20055;-65
2022/01/13 03:43:05;;;;;;;84.07;39.92;;;-3276.20;79.20;;;-2.92;89.09;98139.91;4919771;29;20040;-65
2022/01/13 03:45:32;;;;;;;80.30;39.38;;;-3276.20;79.70;;;-2.91;89.04;98146.75;4925951;29;20039;-65
2022/01/13 03:48:01;;;;;;;84.95;41.10;;;-3276.30;79.70;;;-2.89;89.54;98149.25;4948003;29;20038;-64
2022/01/13 03:50:26;;;;;;;83.07;41.10;;;-3276.30;79.80;;;-2.90;89.20;98145.84;4927941;29;20044;-72
2022/01/13 03:53:18;;;;;;;74.13;37.97;;;-3276.30;79.70;;;-2.95;89.40;98149.47;4927715;29;20055;-66
2022/01/13 03:56:40;;;;;;;93.88;45.75;;;-3276.10;79.70;;;-2.94;90.41;98151.13;4910774;29;20040;-68
2022/01/13 03:59:31;;;;;;;;;;;-3276.30;80.50;;;-2.91;90.70;98140.75;4931978;29;20051;-66
2022/01/13 04:02:03;;;;;;;;;;;-3276.30;80.20;;;-2.95;90.26;98139.16;4926371;29;19918;-65
2022/01/13 04:04:31;;;;;;;80.18;39.92;;;-3276.10;80.10;;;-2.98;89.39;98139.28;4934033;29;19967;-66
2022/01/13 04:07:15;;;;;;;100.50;56.15;;;-3276.20;80.10;;;-2.96;90.13;98140.06;4917636;28;20098;-66
2022/01/13 04:09:41;;;;;;;82.57;41.40;;;-3276.20;80.00;;;-2.97;89.79;98130.66;4918526;29;20036;-66
2022/01/13 04:12:09;;;;;;;74.55;38.20;;;-3276.20;79.90;;;-2.99;89.43;98138.44;4934895;28;20447;-66
2022/01/13 04:14:57;;;;;;;78.15;37.95;;;-3276.10;79.90;;;-2.99;89.86;98142.75;4932813;29;20070;-65
2022/01/13 04:17:24;;;;;;;71.57;35.80;;;-3276.10;80.00;;;-3.01;89.73;98147.13;4918778;29;20483;-65
2022/01/13 04:19:50;;;;;;;71.32;37.38;;;-3276.10;80.10;;;-3.01;90.00;98149.69;4948227;28;20055;-66
2022/01/13 04:22:16;;;;;;;78.38;38.60;;;-3276.20;80.10;;;-3.03;89.78;98149.75;4948196;28;20035;-66
2022/01/13 04:24:48;;;;;;;71.68;35.45;;;-3276.20;79.90;;;-3.03;90.21;98162.63;4932746;29;20036;-65
2022/01/13 04:27:27;;;;;;;79.20;36.50;;;-3276.10;79.90;;;-3.09;89.96;98161.13;4929697;29;20052;-65
2022/01/13 04:32:38;;;;;;;74.85;36.58;;;-3276.00;80.10;;;-3.09;90.04;98171.41;4929469;29;20170;-65
2022/01/13 04:35:10;;;;;;;79.72;38.20;;;-3276.10;80.10;;;-3.05;90.16;98168.72;4947719;28;20047;-65
2022/01/13 04:37:35;;;;;;;73.28;37.58;;;-3276.20;80.00;;;-3.05;89.83;98168.72;4913657;29;20118;-65
2022/01/13 04:40:01;;;;;;;81.10;39.05;;;-3276.20;80.10;;;-3.04;90.01;98160.09;4948821;29;20122;-65
2022/01/13 04:42:32;;;;;;;78.70;38.08;;;-3276.20;79.80;;;-3.08;90.24;98155.06;4932193;29;20111;-65
2022/01/13 04:44:58;;;;;;;75.65;36.60;;;-3276.10;80.10;;;-3.10;90.14;98154.28;4932085;28;20047;-65
2022/01/13 04:47:24;;;;;;;84.88;38.97;;;-3276.00;80.00;;;-3.13;89.89;98151.81;4948266;28;20046;-65
2022/01/13 04:49:50;;;;;;;76.53;36.22;;;-3275.90;80.40;;;-3.13;89.76;98149.25;4932428;29;20046;-66
2022/01/13 04:52:16;;;;;;;84.28;38.65;;;-3276.00;80.40;;;-3.14;90.16;98145.00;4915907;28;20039;-69
2022/01/13 04:54:44;;;;;;;74.15;34.70;;;-3276.00;80.20;;;-3.12;90.20;98143.22;4926745;29;20081;-64
2022/01/13 04:57:17;;;;;;;70.00;36.53;;;-3276.00;80.20;;;-3.11;90.22;98144.88;4933094;29;20118;-64
2022/01/13 04:59:43;;;;;;;110.60;51.83;;;-3276.00;80.10;;;-3.12;90.06;98148.34;4933269;29;20143;-64
2022/01/13 05:02:09;;;;;;;70.43;36.60;;;-3276.00;80.10;;;-3.15;89.99;98143.31;4916909;29;20503;-65
2022/01/13 05:04:34;;;;;;;71.82;36.67;;;-3276.00;80.10;;;-3.16;89.59;98136.50;4909121;29;20060;-66
2022/01/13 05:07:00;;;;;;;80.38;37.03;;;-3276.00;80.10;;;-3.15;89.85;98138.16;4948237;28;20055;-65
2022/01/13 05:09:26;;;;;;;76.03;37.05;;;-3276.00;80.00;;;-3.16;90.21;98144.22;4948579;28;20055;-65
2022/01/13 05:11:51;;;;;;;77.50;36.60;;;-3276.10;79.90;;;-3.18;89.75;98148.56;4916862;28;20048;-64
2022/01/13 05:14:17;;;;;;;74.95;36.08;;;-3276.00;79.90;;;-3.20;90.16;98150.34;4916247;29;20046;-64
2022/01/13 05:17:11;;;;;;;81.70;36.20;;;-3276.00;79.70;;;-3.23;89.94;98150.44;4933761;29;20063;-65
2022/01/13 05:19:39;;;;;;;72.57;35.25;;;-3275.90;79.70;;;-3.28;89.65;98160.06;4932853;29;20039;-65
2022/01/13 05:24:37;;;;;;;75.43;35.75;;;-3275.80;80.10;;;-3.31;89.67;98157.59;4940857;29;20504;-65
2022/01/13 05:27:03;;;;;;;71.85;35.95;;;-3275.80;80.10;;;-3.33;89.69;98146.53;4931987;28;20075;-65
2022/01/13 05:29:29;;;;;;;124.40;62.05;;;-3275.80;80.20;;;-3.35;90.16;98150.91;4916690;29;20036;-64
2022/01/13 05:31:54;;;;;;;122.97;59.35;;;-3275.90;80.50;;;-3.37;90.40;98157.84;4916145;29;20054;-64
2022/01/13 05:34:20;;;;;;;86.97;41.58;;;-3275.90;80.40;;;-3.36;90.20;98164.66;4947721;28;20122;-65
2022/01/13 05:36:46;;;;;;;81.15;36.95;;;-3275.90;80.70;;;-3.35;90.58;98171.47;4916614;28;20399;-65
2022/01/13 05:39:12;;;;;;;73.13;36.80;;;-3275.80;80.40;;;-3.32;90.26;98171.38;4931826;28;20051;-65
2022/01/13 05:41:38;;;;;;;79.35;36.10;;;-3276.00;80.20;;;-3.30;90.01;98171.31;4916164;28;20119;-66
2022/01/13 05:44:04;;;;;;;79.07;36.78;;;-3276.00;80.00;;;-3.30;90.27;98177.31;4948046;29;20086;-65
2022/01/13 05:46:30;;;;;;;76.18;35.72;;;-3275.90;80.00;;;-3.30;89.73;98171.31;4931375;29;20043;-65
2022/01/13 05:48:56;;;;;;;83.70;37.45;;;-3275.90;80.10;;;-3.32;90.05;98181.66;4932922;28;20039;-65
2022/01/13 05:51:22;;;;;;;79.18;36.35;;;-3275.90;80.10;;;-3.34;90.08;98170.59;4931915;29;20039;-65
2022/01/13 05:53:48;;;;;;;83.65;37.08;;;-3275.80;80.00;;;-3.36;89.93;98169.81;4916251;29;20111;-65
2022/01/13 05:56:14;;;;;;;85.18;40.63;;;-3275.90;80.30;;;-3.35;90.51;98173.22;4923250;29;20031;-65
2022/01/13 05:58:40;;;;;;;74.70;35.22;;;-3275.90;80.40;;;-3.37;90.67;98183.56;4942203;29;20036;-65
2022/01/13 06:01:05;;;;;;;80.38;37.95;;;-3275.80;80.30;;;-3.39;90.27;98172.47;4912717;29;20054;-65
2022/01/13 06:03:31;;;;;;;77.60;35.95;;;-3275.70;80.50;;;-3.40;90.32;98184.47;4913037;29;20094;-65
2022/01/13 06:05:57;;;;;;;80.45;38.53;;;-3275.70;80.70;;;-3.39;90.56;98195.63;4896947;29;20187;-65
2022/01/13 06:08:23;;;;;;;83.35;37.10;;;-3275.80;80.70;;;-3.37;90.26;98193.84;4928445;29;20066;-66
2022/01/13 06:10:49;;;;;;;80.53;37.20;;;-3275.80;80.70;;;-3.40;90.16;98199.06;4932902;28;20511;-65
2022/01/13 06:13:15;;;;;;;82.82;37.15;;;-3275.60;80.60;;;-3.47;90.26;98189.91;4915080;28;20047;-65
2022/01/13 06:15:40;;;;;;;79.63;36.58;;;-3275.50;81.30;;;-3.47;90.43;98192.47;4931310;29;20059;-65
2022/01/13 06:18:11;;;;;;;81.97;36.42;;;-3275.50;81.40;;;-3.47;90.75;98192.47;4931469;29;20478;-66
2022/01/13 06:20:39;;;;;;;84.30;36.72;;;-3275.70;81.10;;;-3.45;90.72;98194.09;4915953;29;20028;-65
2022/01/13 06:23:05;;;;;;;111.45;51.00;;;-3275.70;80.80;;;-3.44;90.73;98194.94;4927631;29;20492;-65
2022/01/13 06:25:31;;;;;;;99.85;47.03;;;-3275.80;80.90;;;-3.44;90.82;98185.47;4928077;28;20051;-65
2022/01/13 06:27:57;;;;;;;104.65;52.35;;;-3275.80;80.60;;;-3.42;90.75;98195.72;4921837;29;20036;-65
2022/01/13 06:30:22;;;;;;;80.72;38.60;;;-3275.80;80.60;;;-3.39;90.95;98185.34;4923202;29;20044;-64
2022/01/13 06:32:48;;;;;;;85.28;38.22;;;-3275.90;80.60;;;-3.35;91.11;98198.94;4931325;29;20380;-65
2022/01/13 06:35:14;;;;;;;86.22;39.30;;;-3275.90;80.70;;;-3.31;90.85;98206.50;4914473;28;20055;-66
2022/01/13 06:37:41;;;;;;;90.47;38.83;;;-3276.00;80.70;;;-3.29;90.87;98212.44;4947512;28;20044;-65
2022/01/13 06:40:08;;;;;;;91.47;38.83;;;-3275.90;80.60;;;-3.32;91.01;98206.56;4947161;28;20467;-65
2022/01/13 06:42:33;;;;;;;88.15;38.67;;;-3275.80;81.20;;;-3.38;91.35;98207.63;4931305;29;20023;-65
2022/01/13 06:44:59;;;;;;;85.95;39.20;;;-3275.60;81.50;;;-3.37;91.54;98219.59;4929792;28;20099;-65
2022/01/13 06:47:25;;;;;;;92.97;39.65;;;-3275.70;81.70;;;-3.41;91.46;98228.28;4927751;29;20424;-65
2022/01/13 06:49:51;;;;;;;88.50;36.72;;;-3275.70;81.60;;;-3.43;91.15;98219.75;4944119;28;20455;-66
2022/01/13 06:52:17;;;;;;;87.43;39.10;;;-3275.70;81.80;;;-3.43;91.81;98224.91;4947038;28;20036;-65
2022/01/13 06:54:43;;;;;;;107.65;44.20;;;-3275.70;81.80;;;-3.40;91.96;98229.94;4930999;29;20091;-65
2022/01/13 06:57:09;;;;;;;114.28;47.53;;;-3275.70;81.60;;;-3.39;91.98;98236.81;4946510;28;20530;-65
2022/01/13 06:59:35;;;;;;;121.82;50.75;;;-3275.70;81.60;;;-3.39;91.80;98234.25;4931357;29;20111;-65
2022/01/13 07:02:01;;;;;;;89.18;38.53;;;-3275.80;81.60;;;-3.38;91.77;98243.63;4931204;29;20032;-65
2022/01/13 07:04:28;;;;;;;86.30;39.17;;;-3275.70;82.10;;;-3.40;92.19;98235.09;4930781;29;20051;-65
2022/01/13 07:06:54;;;;;;;86.93;37.30;;;-3275.70;81.70;;;-3.39;91.56;98236.81;4929192;29;20043;-65
2022/01/13 07:09:20;;;;;;;106.78;45.33;;;-3275.80;81.90;;;-3.34;91.95;98229.78;4930493;29;20032;-65
2022/01/13 07:11:46;;;;;;;96.65;41.63;;;-3275.80;82.80;;;-3.29;92.78;98237.34;4931223;29;20039;-65
2022/01/13 07:14:12;;;;;;;87.15;38.63;;;-3276.00;82.30;;;-3.27;92.07;98238.97;4930535;29;20412;-65
2022/01/13 07:16:39;;;;;;;82.05;36.83;;;-3276.00;81.40;;;-3.25;92.11;98234.59;4946865;28;20032;-66
2022/01/13 07:19:05;;;;;;;86.82;37.25;;;-3276.10;81.30;;;-3.22;92.15;98249.94;4946313;29;20411;-64
2022/01/13 07:21:32;;;;;;;83.40;36.58;;;-3276.10;81.00;;;-3.21;91.92;98241.31;4930843;29;20035;-65
2022/01/13 07:23:57;;;;;;;86.53;37.33;;;-3276.00;80.90;;;-3.20;92.14;98242.16;4930829;29;20404;-64
2022/01/13 07:26:23;;;;;;;86.20;37.85;;;-3276.10;81.00;;;-3.18;91.63;98256.66;4930618;29;20044;-65
2022/01/13 07:28:49;;;;;;;84.13;36.97;;;-3276.10;80.70;;;-3.19;91.90;98260.13;4946706;28;20050;-64
2022/01/13 07:31:15;;;;;;;83.30;37.08;;;-3276.00;80.80;;;-3.17;91.93;98253.22;4946018;28;20031;-66
2022/01/13 07:33:42;;;;;;;90.43;38.15;;;-3276.20;81.20;;;-3.13;92.26;98248.81;4926094;29;20032;-64
2022/01/13 07:36:08;;;;;;;89.03;38.75;;;-3276.20;82.00;;;-3.09;92.39;98234.94;4914986;29;20049;-64
2022/01/13 07:38:33;;;;;;;80.97;35.13;;;-3276.10;82.00;;;-3.09;92.27;98234.94;4914618;29;20365;-65
2022/01/13 07:40:59;;;;;;;83.20;35.97;;;-3276.10;81.00;;;-3.08;91.85;98237.44;4926983;29;20084;-65
2022/01/13 07:43:25;;;;;;;82.72;37.63;;;-3276.10;80.90;;;-3.09;92.20;98235.75;4927325;29;20036;-65
2022/01/13 07:45:52;;;;;;;91.25;37.47;;;-3276.10;80.60;;;-3.09;91.79;98243.50;4912872;29;20127;-65
2022/01/13 07:48:18;;;;;;;85.05;37.97;;;-3276.10;80.70;;;-3.12;91.60;98230.72;4927516;29;20093;-65
2022/01/13 07:50:43;;;;;;;91.45;38.17;;;-3276.00;80.80;;;-3.15;91.78;98241.13;4912277;29;20147;-65
2022/01/13 07:53:09;;;;;;;81.20;36.55;;;-3276.00;81.20;;;-3.15;91.43;98225.69;4922764;28;20103;-65
2022/01/13 07:55:35;;;;;;;90.95;36.33;;;-3276.00;80.80;;;-3.16;91.58;98243.75;4930288;29;20106;-64
2022/01/13 07:58:01;;;;;;;75.72;34.75;;;-3276.10;80.90;;;-3.20;91.40;98243.00;4916257;29;20496;-64
2022/01/13 08:00:27;;;;;;;80.47;34.65;;;-3275.90;80.90;;;-3.21;91.81;98249.03;4935372;29;20035;-64
2022/01/13 08:02:52;;;;;;;87.90;38.30;;;-3276.00;81.10;;;-3.18;92.07;98246.34;4950131;29;20035;-65
2022/01/13 08:05:18;;;;;;;84.38;37.88;;;-3276.10;80.90;;;-3.18;91.70;98241.22;4917544;29;20042;-64
2022/01/13 08:07:44;;;;;;;87.35;36.78;;;-3276.10;80.90;;;-3.15;91.98;98240.28;4933657;29;20067;-64
2022/01/13 08:10:10;;;;;;;86.40;37.13;;;-3276.10;80.60;;;-3.12;91.82;98245.34;4917860;29;20083;-65
2022/01/13 08:12:37;;;;;;;84.22;36.65;;;-3276.20;80.50;;;-3.05;91.78;98254.53;4917983;29;20058;-65
2022/01/13 08:15:04;;;;;;;85.75;37.00;;;-3276.30;80.30;;;-3.02;91.68;98256.16;4917167;28;20036;-65
2022/01/13 08:20:15;;;;;;;87.95;36.53;;;-3276.40;80.10;;;-2.95;91.75;98257.59;4915027;29;20645;-66
2022/01/13 08:22:40;;;;;;;86.57;37.25;;;-3276.50;80.00;;;-2.93;91.92;98255.84;4916070;29;20060;-66
2022/01/13 08:25:07;;;;;;;86.15;36.03;;;-3276.50;79.70;;;-2.90;91.68;98250.59;4915132;29;20040;-66
2022/01/13 08:27:32;;;;;;;87.53;37.13;;;-3276.50;79.60;;;-2.85;91.58;98253.84;4930891;29;20567;-66
2022/01/13 08:29:58;;;;;;;86.38;38.47;;;-3276.50;79.70;;;-2.82;91.47;98253.72;4898847;29;20067;-66
2022/01/13 08:32:24;;;;;;;87.95;38.17;;;-3276.60;79.60;;;-2.81;91.65;98260.56;4917172;29;20051;-66
2022/01/13 08:34:50;;;;;;;88.75;37.17;;;-3276.60;79.40;;;-2.80;91.63;98262.25;4948897;29;20098;-64
2022/01/13 08:37:15;;;;;;;83.70;37.22;;;-3276.60;79.50;;;-2.75;91.68;98252.59;4932878;29;20067;-64
2022/01/13 08:39:44;;;;;;;89.40;38.63;;;-3276.70;79.50;;;-2.71;91.77;98243.91;4933416;29;20122;-64
2022/01/13 08:42:11;;;;;;;87.15;36.55;;;-3276.70;79.50;;;-2.69;91.35;98249.84;4933132;29;20420;-64
2022/01/13 08:44:38;;;;;;;82.72;36.55;;;-3276.70;79.20;;;-2.68;91.15;98242.94;4949103;29;20049;-65
2022/01/13 08:47:05;;;;;;;84.55;37.15;;;-3276.70;79.20;;;-2.65;91.06;98246.25;4932843;29;20036;-65
2022/01/13 08:49:31;;;;;;;88.95;37.60;;;-3276.70;79.00;;;-2.66;91.21;98252.31;4917491;29;20062;-65
2022/01/13 08:51:56;;;;;;;84.28;36.15;;;-3276.60;79.10;;;-2.65;91.31;98253.97;4933312;29;20439;-64
2022/01/13 08:54:22;;;;;;;86.18;36.80;;;-3276.70;79.20;;;-2.62;91.13;98256.44;4933656;28;20059;-64
2022/01/13 08:56:48;;;;;;;85.20;36.60;;;-3276.70;78.90;;;-2.58;91.17;98257.16;4933285;29;20036;-64
2022/01/13 08:59:14;;;;;;;79.75;36.05;;;0.00;78.90;;;-2.56;91.03;98266.53;4948667;28;20530;-64
2022/01/13 09:01:40;;;;;;;83.25;34.97;;;0.00;79.10;;;-2.50;91.15;98275.75;4933167;29;20467;-65
2022/01/13 09:04:05;;;;;;;81.40;38.10;;;0.00;78.90;;;-2.49;90.97;98283.47;4928271;29;20048;-64
2022/01/13 09:06:31;;;;;;;82.53;36.78;;;0.00;78.80;;;-2.43;90.63;98281.56;4913827;29;20037;-65
2022/01/13 09:08:57;;;;;;;88.22;36.08;;;0.10;79.00;;;-2.40;90.90;98277.13;4913047;29;20036;-65
2022/01/13 09:11:23;;;;;;;80.38;36.78;;;0.10;78.70;;;-2.39;90.39;98285.69;4913973;29;20031;-65
2022/01/13 09:13:55;;;;;;;72.75;33.65;;;0.10;78.60;;;-2.40;90.32;98299.47;4903361;29;20107;-64
2022/01/13 09:16:23;;;;;;;79.25;34.25;;;0.00;78.20;;;-2.45;90.32;98289.34;4928417;29;20028;-64
2022/01/13 09:21:22;;;;;;;81.65;36.88;;;0.00;78.10;;;-2.45;90.00;98279.03;4913564;29;20036;-64
2022/01/13 09:23:47;;;;;;;80.13;37.08;;;0.00;78.30;;;-2.42;90.18;98288.38;4942687;28;20063;-65
2022/01/13 09:26:13;;;;;;;91.60;47.67;;;0.00;78.20;;;-2.41;90.27;98284.91;4948121;28;20147;-66
2022/01/13 09:28:39;;;;;;;101.18;48.42;;;0.10;78.00;;;-2.41;90.27;98285.75;4932720;29;20032;-65
2022/01/13 09:31:05;;;;;;;102.90;48.42;;;0.10;78.00;;;-2.36;90.13;98288.16;4932195;29;20035;-64
2022/01/13 09:33:31;;;;;;;95.28;44.67;;;0.10;78.20;;;-2.33;90.60;98288.03;4920183;29;20542;-64
2022/01/13 09:35:57;;;;;;;85.82;38.97;;;0.20;78.30;;;-2.33;90.30;98282.88;4932068;29;20036;-65
2022/01/13 09:38:22;;;;;;;85.72;37.85;;;0.20;78.10;;;-2.30;90.50;98288.75;4948194;29;20071;-64
2022/01/13 09:40:52;;;;;;;87.20;38.10;;;0.20;77.90;;;-2.28;90.45;98291.28;4932577;29;20035;-64
2022/01/13 09:43:20;;;;;;;85.10;39.90;;;0.20;77.80;;;-2.26;89.89;98279.22;4926078;28;20043;-65
2022/01/13 09:45:46;;;;;;;82.13;37.17;;;0.30;77.70;;;-2.21;90.12;98278.13;4931965;29;20031;-64
2022/01/13 09:48:12;;;;;;;87.82;37.60;;;0.30;77.80;;;-2.16;90.25;98286.53;4932010;29;20039;-64
2022/01/13 09:50:37;;;;;;;80.90;36.63;;;0.40;77.70;;;-2.11;90.29;98294.09;4931926;29;20036;-66
2022/01/13 09:53:03;;;;;;;74.18;34.33;;;0.40;77.40;;;-2.08;89.74;98293.97;4930693;29;20380;-65
2022/01/13 09:55:29;;;;;;;77.38;34.70;;;0.40;77.40;;;-2.06;89.48;98299.06;4915563;29;20051;-64
2022/01/13 09:58:00;;;;;;;80.55;36.20;;;0.40;77.10;;;-2.06;89.32;98297.34;4948066;29;20566;-65
2022/01/13 10:00:26;;;;;;;80.03;36.70;;;0.40;76.80;;;-2.05;89.49;98293.84;4932031;29;20698;-65
2022/01/13 10:02:52;;;;;;;81.45;36.97;;;0.40;76.90;;;-2.02;89.70;98296.34;4931845;29;20024;-64
2022/01/13 10:05:19;;;;;;;84.70;37.78;;;0.50;77.10;;;-1.99;89.22;98287.66;4930944;29;20067;-64
2022/01/13 10:07:46;;;;;;;86.70;38.97;;;0.40;76.60;;;-2.00;89.42;98286.81;4947797;29;20035;-64
2022/01/13 10:10:15;;;;;;;86.53;37.50;;;0.50;76.80;;;-1.98;89.10;98282.44;4931838;29;20507;-65
2022/01/13 10:12:45;;;;;;;86.30;38.08;;;0.60;76.90;;;-1.95;89.53;98272.00;4915777;29;20059;-65
2022/01/13 10:18:04;;;;;;;78.00;36.65;;;0.70;76.70;;;-1.91;89.29;98270.97;4932089;29;20071;-65
2022/01/13 10:20:30;;;;;;;87.82;39.85;;;0.60;76.20;;;-1.89;88.74;98268.34;4946637;28;20501;-64
2022/01/13 10:23:09;;;;;;;84.88;39.70;;;0.60;76.30;;;-1.86;89.20;98269.06;4947470;28;20042;-65